createdAt,value
2022-07-29T00:02:26.565Z,60.07
2022-07-29T00:04:53.682Z,61.10
2022-07-29T00:07:20.721Z,61.33
2022-07-29T00:09:51.696Z,61.56
2022-07-29T00:12:26.176Z,61.67
2022-07-29T00:14:57.243Z,62.19
2022-07-29T00:17:27.277Z,61.78
2022-07-29T00:19:54.132Z,62.10
2022-07-29T00:22:21.062Z,61.95
2022-07-29T00:24:48.985Z,61.99
2022-07-29T00:27:18.417Z,61.83
2022-07-29T00:29:45.421Z,61.29
2022-07-29T00:32:12.467Z,61.34
2022-07-29T00:35:16.672Z,61.53
2022-07-29T00:37:44.248Z,60.96
2022-07-29T00:40:11.200Z,60.56
2022-07-29T00:42:48.225Z,60.88
2022-07-29T00:45:16.505Z,61.61
2022-07-29T00:47:43.710Z,61.22
2022-07-29T00:50:11.721Z,61.36
2022-07-29T00:52:40.229Z,61.12
2022-07-29T00:55:08.968Z,61.20
2022-07-29T00:57:36.104Z,61.68
2022-07-29T01:00:05.168Z,61.96
2022-07-29T01:02:32.342Z,61.41
2022-07-29T01:04:59.702Z,62.00
2022-07-29T01:07:27.665Z,62.20
2022-07-29T01:09:55.620Z,62.41
2022-07-29T01:12:29.961Z,62.72
2022-07-29T01:14:57.421Z,63.29
2022-07-29T01:17:24.372Z,63.52
2022-07-29T01:20:00.476Z,63.62
2022-07-29T01:22:38.678Z,63.97
2022-07-29T01:25:12.343Z,64.11
2022-07-29T01:27:46.294Z,64.17
2022-07-29T01:30:15.568Z,64.06
2022-07-29T01:32:44.177Z,64.68
2022-07-29T01:35:40.181Z,64.52
2022-07-29T01:38:10.843Z,64.03
2022-07-29T01:40:43.740Z,63.91
2022-07-29T01:43:12.608Z,64.59
2022-07-29T01:45:39.545Z,64.35
2022-07-29T01:48:11.669Z,65.10
2022-07-29T01:50:47.767Z,64.86
2022-07-29T01:53:16.625Z,65.05
2022-07-29T01:55:45.285Z,64.88
2022-07-29T01:58:13.212Z,64.28
2022-07-29T02:00:40.585Z,63.86
2022-07-29T02:03:12.530Z,64.08
2022-07-29T02:05:40.551Z,64.23
2022-07-29T02:08:09.608Z,63.67
2022-07-29T02:10:37.749Z,63.92
2022-07-29T02:13:05.252Z,63.59
2022-07-29T02:15:33.771Z,63.90
2022-07-29T02:18:08.411Z,64.17
2022-07-29T02:20:35.672Z,64.73
2022-07-29T02:23:03.439Z,65.23
2022-07-29T02:25:37.303Z,64.99
2022-07-29T02:28:06.664Z,64.65
2022-07-29T02:30:34.245Z,65.30
2022-07-29T02:33:02.284Z,65.81
2022-07-29T02:35:34.954Z,66.15
2022-07-29T02:38:21.773Z,65.86
2022-07-29T02:40:49.541Z,66.55
2022-07-29T02:43:16.926Z,66.55
2022-07-29T02:45:43.956Z,66.74
2022-07-29T02:48:14.306Z,66.81
2022-07-29T02:51:04.347Z,67.11
2022-07-29T02:53:34.405Z,66.40
2022-07-29T02:56:05.566Z,66.81
2022-07-29T02:58:35.268Z,66.94
2022-07-29T03:01:10.409Z,66.67
2022-07-29T03:03:38.842Z,67.09
2022-07-29T03:06:06.678Z,67.57
2022-07-29T03:08:33.814Z,67.45
2022-07-29T03:11:01.849Z,67.22
2022-07-29T03:13:30.537Z,66.67
2022-07-29T03:15:58.781Z,67.00
2022-07-29T03:18:26.892Z,66.22
2022-07-29T03:20:53.669Z,66.34
2022-07-29T03:23:21.984Z,66.46
2022-07-29T03:25:49.277Z,66.59
2022-07-29T03:28:16.588Z,65.84
2022-07-29T03:30:46.451Z,66.11
2022-07-29T03:33:13.936Z,65.18
2022-07-29T03:35:41.053Z,65.54
2022-07-29T03:38:08.355Z,65.31
2022-07-29T03:40:46.012Z,65.75
2022-07-29T03:43:13.892Z,65.53
2022-07-29T03:45:43.995Z,65.36
2022-07-29T03:48:13.158Z,65.24
2022-07-29T03:50:40.274Z,65.67
2022-07-29T03:53:07.453Z,65.17
2022-07-29T03:55:37.399Z,65.84
2022-07-29T03:58:04.502Z,66.09
2022-07-29T04:00:32.545Z,65.81
2022-07-29T04:02:59.459Z,65.85
2022-07-29T04:05:26.320Z,66.02
2022-07-29T04:07:53.351Z,65.71
2022-07-29T04:10:30.109Z,65.66
2022-07-29T04:12:59.831Z,65.33
2022-07-29T04:15:31.498Z,65.21
2022-07-29T04:17:59.177Z,64.98
2022-07-29T04:20:26.903Z,64.48
2022-07-29T04:22:53.740Z,65.02
2022-07-29T04:25:21.018Z,64.91
2022-07-29T04:28:03.907Z,65.01
2022-07-29T04:30:31.748Z,64.38
2022-07-29T04:32:59.586Z,64.18
2022-07-29T04:35:26.512Z,63.69
2022-07-29T04:37:53.487Z,64.29
2022-07-29T04:40:20.812Z,64.34
2022-07-29T04:42:48.028Z,63.53
2022-07-29T04:45:16.307Z,63.41
2022-07-29T04:47:43.412Z,62.44
2022-07-29T04:50:10.876Z,62.83
2022-07-29T04:52:37.873Z,61.56
2022-07-29T04:55:05.620Z,61.92
2022-07-29T04:57:32.517Z,61.52
2022-07-29T04:59:59.353Z,61.65
2022-07-29T05:02:26.634Z,62.06
2022-07-29T05:04:53.546Z,61.69
2022-07-29T05:07:20.417Z,61.35
2022-07-29T05:09:47.444Z,60.70
2022-07-29T05:12:14.264Z,60.43
2022-07-29T05:14:41.164Z,59.99
2022-07-29T05:17:08.304Z,59.49
2022-07-29T05:19:39.735Z,59.51
2022-07-29T05:22:07.044Z,59.19
2022-07-29T05:24:34.059Z,59.09
2022-07-29T05:27:01.118Z,58.87
2022-07-29T05:29:43.664Z,58.19
2022-07-29T05:32:13.240Z,57.14
2022-07-29T05:34:50.250Z,57.39
2022-07-29T05:37:21.433Z,56.48
2022-07-29T05:39:56.360Z,56.40
2022-07-29T05:42:27.799Z,56.47
2022-07-29T05:44:54.777Z,56.26
2022-07-29T05:47:21.802Z,55.89
2022-07-29T05:49:49.601Z,55.30
2022-07-29T05:52:16.423Z,54.71
2022-07-29T05:54:43.278Z,53.32
2022-07-29T05:57:16.317Z,51.98
2022-07-29T05:59:43.077Z,51.42
2022-07-29T06:02:09.900Z,51.33
2022-07-29T06:04:37.079Z,52.06
2022-07-29T06:07:04.204Z,52.54
2022-07-29T06:09:30.974Z,52.03
2022-07-29T06:11:59.022Z,51.94
2022-07-29T06:14:26.751Z,51.28
2022-07-29T06:16:54.209Z,48.92
2022-07-29T06:19:21.362Z,45.53
2022-07-29T06:21:48.934Z,45.02
2022-07-29T06:24:16.556Z,45.11
2022-07-29T06:26:43.996Z,45.57
2022-07-29T06:29:14.113Z,46.38
2022-07-29T06:31:40.973Z,47.00
2022-07-29T06:34:08.216Z,47.36
2022-07-29T06:36:35.779Z,48.54
2022-07-29T06:39:05.316Z,49.69
2022-07-29T06:41:33.147Z,50.93
2022-07-29T06:44:00.338Z,50.90
2022-07-29T06:46:27.128Z,51.24
2022-07-29T06:48:54.641Z,51.07
2022-07-29T06:51:23.134Z,50.77
2022-07-29T06:53:59.700Z,50.37
2022-07-29T06:56:31.106Z,50.37
2022-07-29T06:58:58.338Z,49.28
2022-07-29T07:01:25.403Z,48.01
2022-07-29T07:03:52.601Z,47.19
2022-07-29T07:06:19.411Z,45.55
2022-07-29T07:08:46.241Z,44.72
2022-07-29T07:11:13.419Z,44.01
2022-07-29T07:13:40.298Z,43.90
2022-07-29T07:16:07.150Z,43.69
2022-07-29T07:18:34.469Z,43.32
2022-07-29T07:21:01.275Z,43.55
2022-07-29T07:23:28.088Z,42.95
2022-07-29T07:25:55.148Z,41.81
2022-07-29T07:28:24.941Z,40.31
2022-07-29T07:30:52.767Z,39.77
2022-07-29T07:33:20.159Z,40.50
2022-07-29T07:35:47.416Z,42.64
2022-07-29T07:38:14.513Z,43.24
2022-07-29T07:40:42.588Z,43.47
2022-07-29T07:43:09.856Z,43.44
2022-07-29T07:45:38.498Z,43.64
2022-07-29T07:48:06.031Z,43.69
2022-07-29T07:50:33.004Z,44.85
2022-07-29T07:53:00.560Z,44.23
2022-07-29T07:55:27.773Z,43.87
2022-07-29T07:57:55.332Z,43.55
2022-07-29T08:00:23.615Z,43.99
2022-07-29T08:02:51.458Z,43.46
2022-07-29T08:05:18.668Z,42.68
2022-07-29T08:07:48.704Z,41.82
2022-07-29T08:10:37.126Z,40.76
2022-07-29T08:13:07.332Z,41.31
2022-07-29T08:15:35.068Z,39.43
2022-07-29T08:18:06.544Z,38.42
2022-07-29T08:20:36.818Z,37.17
2022-07-29T08:23:03.928Z,35.52
2022-07-29T08:25:30.828Z,34.57
2022-07-29T08:27:57.984Z,32.29
2022-07-29T08:30:25.032Z,30.34
2022-07-29T08:32:55.556Z,28.89
2022-07-29T08:35:23.992Z,28.92
2022-07-29T08:37:50.932Z,27.58
2022-07-29T08:40:17.833Z,27.50
2022-07-29T08:42:44.926Z,28.21
2022-07-29T08:45:11.856Z,29.27
2022-07-29T08:47:40.872Z,31.15
2022-07-29T08:50:09.130Z,29.60
2022-07-29T08:52:42.356Z,29.53
2022-07-29T08:55:10.721Z,29.58
2022-07-29T08:57:39.783Z,29.98
2022-07-29T09:00:19.372Z,29.26
2022-07-29T09:02:49.151Z,29.40
2022-07-29T09:05:16.192Z,29.17
2022-07-29T09:07:44.427Z,29.50
2022-07-29T09:10:11.427Z,29.70
2022-07-29T09:12:38.464Z,30.82
2022-07-29T09:15:06.030Z,31.53
2022-07-29T09:17:42.786Z,32.53
2022-07-29T09:20:13.747Z,32.43
2022-07-29T09:22:42.214Z,32.33
2022-07-29T09:25:10.001Z,32.58
2022-07-29T09:27:37.268Z,31.70
2022-07-29T09:30:08.480Z,30.14
2022-07-29T09:32:54.965Z,29.35
2022-07-29T09:35:23.305Z,27.05
2022-07-29T09:37:50.847Z,27.65
2022-07-29T09:40:19.014Z,27.81
2022-07-29T09:42:46.852Z,27.66
2022-07-29T09:45:14.006Z,28.80
2022-07-29T09:47:49.978Z,29.25
2022-07-29T09:50:17.509Z,29.83
2022-07-29T09:52:49.202Z,30.84
2022-07-29T09:55:18.414Z,30.74
2022-07-29T09:57:47.603Z,31.09
2022-07-29T10:00:16.342Z,31.36
2022-07-29T10:02:47.259Z,31.45
2022-07-29T10:05:19.040Z,31.89
2022-07-29T10:07:51.753Z,32.28
2022-07-29T10:10:25.179Z,33.31
2022-07-29T10:12:56.460Z,33.35
2022-07-29T10:15:27.844Z,34.41
2022-07-29T10:17:55.532Z,33.87
2022-07-29T10:20:23.390Z,34.24
2022-07-29T10:22:53.455Z,35.56
2022-07-29T10:25:21.350Z,35.06
2022-07-29T10:27:49.317Z,36.30
2022-07-29T10:30:17.341Z,36.31
2022-07-29T10:32:54.059Z,36.32
2022-07-29T10:35:33.843Z,35.93
2022-07-29T10:38:03.701Z,35.49
2022-07-29T10:41:06.795Z,34.79
2022-07-29T10:43:38.951Z,34.31
2022-07-29T10:46:10.120Z,33.10
2022-07-29T10:48:57.513Z,32.41
2022-07-29T10:51:25.132Z,31.69
2022-07-29T10:53:53.738Z,30.17
2022-07-29T10:56:39.237Z,28.38
2022-07-29T10:59:21.479Z,28.39
2022-07-29T11:01:53.540Z,28.41
2022-07-29T11:04:47.144Z,28.99
2022-07-29T11:07:17.588Z,27.28
2022-07-29T11:09:46.585Z,26.43
2022-07-29T11:12:32.429Z,25.07
2022-07-29T11:15:00.359Z,23.23
2022-07-29T11:17:27.393Z,21.70
2022-07-29T11:20:23.448Z,21.36
2022-07-29T11:22:51.836Z,20.16
2022-07-29T11:25:50.402Z,19.49
2022-07-29T11:28:12.292Z,20.61
2022-07-29T11:30:50.247Z,21.56
2022-07-29T11:33:54.169Z,21.35
2022-07-29T11:36:16.906Z,22.07
2022-07-29T11:38:44.459Z,23.50
2022-07-29T11:41:31.784Z,22.20
2022-07-29T11:44:00.785Z,20.25
2022-07-29T11:46:50.508Z,19.56
2022-07-29T11:49:22.313Z,18.28
2022-07-29T11:52:03.151Z,19.31
2022-07-29T11:54:57.088Z,20.00
2022-07-29T11:57:22.615Z,20.02
2022-07-29T11:59:50.784Z,20.65
2022-07-29T12:02:37.154Z,19.59
2022-07-29T12:05:10.468Z,19.50
2022-07-29T12:07:39.090Z,19.22
2022-07-29T12:10:11.600Z,19.59
2022-07-29T12:12:52.606Z,19.34
2022-07-29T12:15:22.404Z,19.28
2022-07-29T12:17:49.605Z,20.70
2022-07-29T12:20:27.570Z,22.57
2022-07-29T12:22:55.621Z,22.91
2022-07-29T12:25:33.133Z,23.46
2022-07-29T12:28:02.489Z,23.71
2022-07-29T12:30:37.058Z,24.57
2022-07-29T12:33:11.065Z,24.98
2022-07-29T12:35:38.350Z,25.83
2022-07-29T12:38:05.432Z,25.92
2022-07-29T12:40:32.350Z,25.63
2022-07-29T12:43:10.485Z,26.60
2022-07-29T12:45:42.168Z,26.82
2022-07-29T12:48:12.008Z,27.78
2022-07-29T12:50:54.057Z,26.44
2022-07-29T12:53:21.224Z,27.08
2022-07-29T12:55:52.780Z,28.36
2022-07-29T12:58:32.133Z,27.72
2022-07-29T13:01:00.944Z,27.20
2022-07-29T13:03:28.953Z,27.71
2022-07-29T13:06:02.954Z,27.58
2022-07-29T13:08:29.841Z,27.09
2022-07-29T13:10:56.757Z,27.46
2022-07-29T13:13:24.029Z,28.42
2022-07-29T13:16:06.258Z,28.40
2022-07-29T13:18:34.882Z,28.76
2022-07-29T13:21:12.077Z,29.12
2022-07-29T13:23:39.320Z,28.73
2022-07-29T13:26:10.053Z,28.36
2022-07-29T13:28:36.944Z,28.14
2022-07-29T13:31:04.393Z,29.01
2022-07-29T13:33:31.370Z,29.07
2022-07-29T13:35:58.160Z,28.30
2022-07-29T13:38:31.099Z,29.02
2022-07-29T13:40:59.661Z,27.79
2022-07-29T13:43:26.814Z,28.68
2022-07-29T13:45:53.656Z,28.71
2022-07-29T13:48:20.721Z,28.25
2022-07-29T13:50:49.017Z,28.75
2022-07-29T13:53:17.835Z,28.64
2022-07-29T13:55:45.160Z,29.07
2022-07-29T13:58:12.262Z,29.13
2022-07-29T14:00:39.171Z,29.05
2022-07-29T14:03:07.444Z,28.66
2022-07-29T14:05:34.558Z,28.86
2022-07-29T14:08:01.398Z,29.01
2022-07-29T14:10:28.269Z,29.18
2022-07-29T14:12:55.513Z,28.87
2022-07-29T14:15:22.331Z,29.03
2022-07-29T14:17:49.138Z,29.39
2022-07-29T14:20:17.182Z,29.61
2022-07-29T14:22:45.056Z,28.96
2022-07-29T14:25:14.322Z,29.26
2022-07-29T14:27:43.806Z,28.42
2022-07-29T14:30:11.285Z,28.89
2022-07-29T14:32:38.052Z,29.04
2022-07-29T14:35:05.758Z,29.13
2022-07-29T14:37:39.043Z,28.72
2022-07-29T14:40:08.147Z,28.59
2022-07-29T14:42:35.060Z,29.22
2022-07-29T14:45:02.091Z,29.18
2022-07-29T14:47:29.377Z,29.34
2022-07-29T14:49:56.203Z,27.84
2022-07-29T14:52:23.005Z,28.25
2022-07-29T14:54:50.508Z,28.24
2022-07-29T14:57:17.725Z,28.62
2022-07-29T14:59:44.840Z,28.74
2022-07-29T15:02:11.958Z,28.85
2022-07-29T15:04:40.402Z,28.83
2022-07-29T15:07:07.540Z,28.70
2022-07-29T15:09:40.161Z,28.62
2022-07-29T15:12:07.861Z,28.63
2022-07-29T15:14:35.062Z,28.44
2022-07-29T15:17:02.405Z,29.12
2022-07-29T15:19:31.603Z,29.06
2022-07-29T15:21:59.723Z,28.87
2022-07-29T15:24:27.036Z,28.58
2022-07-29T15:26:54.878Z,28.64
2022-07-29T15:29:22.453Z,28.29
2022-07-29T15:31:49.797Z,28.01
2022-07-29T15:34:16.745Z,28.44
2022-07-29T15:36:52.781Z,28.02
2022-07-29T15:39:21.364Z,29.26
2022-07-29T15:41:48.321Z,29.20
2022-07-29T15:44:15.065Z,28.85
2022-07-29T15:47:01.584Z,29.36
2022-07-29T15:49:47.915Z,28.77
2022-07-29T15:52:26.190Z,28.05
2022-07-29T15:54:54.360Z,28.66
2022-07-29T15:57:21.843Z,28.74
2022-07-29T15:59:48.725Z,28.84
2022-07-29T16:02:15.750Z,28.64
2022-07-29T16:04:42.903Z,28.47
2022-07-29T16:07:09.756Z,28.86
2022-07-29T16:09:36.628Z,28.61
2022-07-29T16:12:14.970Z,28.73
2022-07-29T16:14:43.442Z,28.98
2022-07-29T16:17:14.960Z,28.86
2022-07-29T16:19:42.835Z,28.96
2022-07-29T16:22:09.676Z,29.37
2022-07-29T16:24:37.403Z,29.31
2022-07-29T16:27:04.719Z,29.45
2022-07-29T16:29:31.560Z,29.19
2022-07-29T16:31:58.829Z,29.42
2022-07-29T16:34:25.700Z,29.38
2022-07-29T16:36:52.568Z,29.61
2022-07-29T16:39:19.623Z,29.52
2022-07-29T16:41:46.432Z,30.04
2022-07-29T16:44:13.332Z,30.01
2022-07-29T16:46:41.434Z,29.94
2022-07-29T16:49:08.392Z,30.51
2022-07-29T16:51:35.316Z,30.32
2022-07-29T16:54:02.709Z,30.72
2022-07-29T16:56:29.720Z,30.81
2022-07-29T16:58:57.944Z,30.56
2022-07-29T17:01:24.998Z,30.40
2022-07-29T17:04:07.113Z,30.61
2022-07-29T17:06:39.819Z,30.83
2022-07-29T17:09:07.416Z,30.68
2022-07-29T17:11:53.020Z,30.93
2022-07-29T17:14:24.177Z,31.52
2022-07-29T17:17:00.495Z,31.26
2022-07-29T17:19:28.579Z,30.84
2022-07-29T17:22:02.337Z,31.46
2022-07-29T17:24:34.332Z,31.03
2022-07-29T17:27:02.227Z,31.04
2022-07-29T17:29:29.115Z,31.42
2022-07-29T17:31:57.882Z,31.48
2022-07-29T17:34:24.736Z,31.59
2022-07-29T17:36:51.761Z,31.92
2022-07-29T17:39:18.892Z,31.84
2022-07-29T17:41:46.939Z,31.94
2022-07-29T17:44:13.783Z,32.29
2022-07-29T17:46:40.952Z,32.53
2022-07-29T17:49:07.886Z,33.05
2022-07-29T17:51:34.801Z,32.47
2022-07-29T17:54:01.991Z,32.39
2022-07-29T17:56:29.070Z,32.68
2022-07-29T17:58:56.328Z,33.16
2022-07-29T18:01:24.188Z,33.02
2022-07-29T18:03:51.140Z,33.17
2022-07-29T18:06:18.087Z,33.06
2022-07-29T18:08:47.646Z,33.20
2022-07-29T18:11:15.190Z,33.25
2022-07-29T18:13:43.164Z,33.14
2022-07-29T18:16:10.280Z,33.27
2022-07-29T18:18:37.321Z,33.92
2022-07-29T18:21:04.564Z,33.62
2022-07-29T18:23:32.074Z,33.11
2022-07-29T18:25:59.069Z,33.94
2022-07-29T18:28:25.848Z,33.89
2022-07-29T18:30:53.241Z,34.26
2022-07-29T18:33:22.149Z,34.36
2022-07-29T18:35:51.750Z,34.61
2022-07-29T18:38:19.325Z,34.60
2022-07-29T18:40:46.358Z,34.19
2022-07-29T18:43:13.848Z,34.59
2022-07-29T18:45:42.566Z,34.63
2022-07-29T18:48:12.821Z,34.73
2022-07-29T18:50:41.157Z,34.54
2022-07-29T18:53:08.560Z,35.01
2022-07-29T18:55:35.462Z,35.33
2022-07-29T18:58:02.275Z,35.42
2022-07-29T19:00:30.611Z,35.76
2022-07-29T19:02:57.587Z,35.43
2022-07-29T19:05:25.587Z,35.86
2022-07-29T19:07:54.874Z,35.94
2022-07-29T19:10:21.820Z,36.67
2022-07-29T19:12:48.864Z,36.44
2022-07-29T19:15:19.902Z,37.09
2022-07-29T19:17:48.057Z,37.17
2022-07-29T19:20:15.851Z,37.68
2022-07-29T19:22:42.859Z,37.70
2022-07-29T19:25:10.197Z,37.29
2022-07-29T19:27:37.494Z,38.31
2022-07-29T19:30:07.049Z,38.63
2022-07-29T19:32:34.017Z,38.98
2022-07-29T19:35:19.440Z,39.70
2022-07-29T19:37:46.522Z,39.35
2022-07-29T19:40:13.444Z,38.73
2022-07-29T19:42:40.266Z,39.74
2022-07-29T19:45:07.554Z,40.11
2022-07-29T19:47:34.453Z,39.98
2022-07-29T19:50:01.397Z,39.57
2022-07-29T19:52:28.851Z,40.17
2022-07-29T19:54:55.949Z,40.92
2022-07-29T19:57:22.759Z,40.21
2022-07-29T19:59:51.266Z,39.85
2022-07-29T20:02:18.487Z,40.87
2022-07-29T20:04:45.480Z,39.88
2022-07-29T20:07:13.651Z,39.72
2022-07-29T20:09:41.011Z,39.40
2022-07-29T20:12:08.884Z,40.01
2022-07-29T20:14:36.254Z,39.93
2022-07-29T20:17:03.425Z,40.19
2022-07-29T20:19:33.094Z,39.96
2022-07-29T20:22:01.704Z,41.02
2022-07-29T20:24:30.022Z,40.33
2022-07-29T20:26:57.863Z,41.24
2022-07-29T20:29:26.477Z,41.21
2022-07-29T20:31:56.709Z,40.91
2022-07-29T20:34:24.615Z,41.43
2022-07-29T20:36:52.630Z,41.89
2022-07-29T20:39:23.497Z,41.84
2022-07-29T20:41:51.405Z,42.85
2022-07-29T20:44:23.750Z,43.09
2022-07-29T20:46:51.275Z,42.42
2022-07-29T20:49:18.577Z,42.76
2022-07-29T20:51:46.757Z,43.44
2022-07-29T20:54:13.653Z,43.83
2022-07-29T20:56:42.062Z,44.04
2022-07-29T20:59:09.885Z,43.92
2022-07-29T21:01:37.151Z,44.05
2022-07-29T21:04:04.405Z,43.15
2022-07-29T21:06:31.795Z,45.07
2022-07-29T21:08:59.919Z,44.52
2022-07-29T21:11:44.542Z,45.08
2022-07-29T21:14:29.674Z,44.92
2022-07-29T21:16:57.472Z,44.75
2022-07-29T21:19:24.679Z,45.07
2022-07-29T21:21:51.495Z,44.87
2022-07-29T21:24:19.249Z,44.18
2022-07-29T21:26:54.476Z,44.88
2022-07-29T21:29:33.239Z,44.18
2022-07-29T21:32:00.345Z,44.79
2022-07-29T21:34:28.142Z,45.53
2022-07-29T21:36:55.079Z,45.67
2022-07-29T21:39:22.451Z,46.12
2022-07-29T21:41:49.525Z,46.07
2022-07-29T21:44:16.302Z,45.65
2022-07-29T21:46:43.396Z,45.49
2022-07-29T21:49:10.201Z,46.48
2022-07-29T21:51:37.033Z,45.37
2022-07-29T21:54:04.627Z,44.72
2022-07-29T21:56:31.688Z,45.25
2022-07-29T21:58:58.549Z,45.25
2022-07-29T22:01:25.775Z,45.60
2022-07-29T22:03:52.694Z,45.06
2022-07-29T22:06:19.769Z,44.92
2022-07-29T22:08:48.136Z,46.02
2022-07-29T22:11:14.999Z,45.86
2022-07-29T22:13:42.258Z,44.79
2022-07-29T22:16:10.362Z,44.76
2022-07-29T22:18:37.133Z,44.59
2022-07-29T22:21:04.258Z,44.75
2022-07-29T22:23:31.404Z,45.15
2022-07-29T22:25:58.243Z,45.48
2022-07-29T22:28:25.140Z,45.24
2022-07-29T22:30:52.213Z,45.94
2022-07-29T22:33:19.345Z,45.81
2022-07-29T22:35:48.334Z,46.08
2022-07-29T22:38:19.310Z,45.63
2022-07-29T22:40:48.770Z,44.85
2022-07-29T22:43:17.768Z,45.64
2022-07-29T22:45:44.745Z,45.03
2022-07-29T22:48:11.766Z,45.66
2022-07-29T22:50:39.300Z,45.82
2022-07-29T22:53:06.263Z,46.48
2022-07-29T22:55:33.327Z,46.59
2022-07-29T22:58:00.521Z,46.21
2022-07-29T23:00:27.336Z,46.38
2022-07-29T23:02:54.511Z,47.35
2022-07-29T23:05:21.510Z,46.49
2022-07-29T23:07:48.295Z,47.06
2022-07-29T23:10:15.163Z,47.00
2022-07-29T23:12:42.301Z,46.74
2022-07-29T23:15:09.212Z,46.56
2022-07-29T23:17:36.786Z,46.62
2022-07-29T23:20:08.094Z,47.47
2022-07-29T23:22:35.744Z,47.53
2022-07-29T23:25:02.878Z,48.52
2022-07-29T23:27:29.996Z,48.43
2022-07-29T23:29:56.836Z,49.16
2022-07-29T23:32:23.643Z,48.83
2022-07-29T23:34:50.712Z,48.29
2022-07-29T23:37:17.507Z,47.86
2022-07-29T23:39:44.250Z,47.94
2022-07-29T23:42:11.357Z,48.08
2022-07-29T23:44:38.331Z,47.71
2022-07-29T23:47:05.340Z,47.58
2022-07-29T23:49:32.401Z,47.90
2022-07-29T23:51:59.228Z,48.04
2022-07-29T23:54:26.199Z,47.78
2022-07-29T23:56:53.398Z,48.15
2022-07-29T23:59:20.191Z,47.38
